Time;durP1;ratioP1;P1;durP2;ratioP2;P2;SDS_P1;SDS_P2;PMS_P1;PMS_P2;Temp;Humidity;BMP_temperature;BMP_pressure;BME280_temperature;BME280_humidity;BME280_pressure;Samples;Min_cycle;Max_cycle;Signal;HPM_P1;HPM_P2
2023/03/24 00:00:14;;;;;;;16.08;12.68;;;;;;;9.99;55.73;98515.50;5025003;28;20113;-54
2023/03/24 00:02:41;;;;;;;20.13;13.07;;;;;;;9.98;55.83;98523.69;5012363;28;20048;-56
2023/03/24 00:05:13;;;;;;;19.17;12.82;;;;;;;9.98;55.61;98524.50;5013036;28;20033;-53
2023/03/24 00:07:39;;;;;;;17.02;13.32;;;;;;;9.98;55.79;98512.97;5013317;28;20065;-55
2023/03/24 00:10:11;;;;;;;18.92;13.80;;;;;;;9.99;55.82;98520.00;5013039;28;20049;-59
2023/03/24 00:12:37;;;;;;;19.00;12.82;;;;;;;9.94;55.87;98514.28;5019684;28;20037;-53
2023/03/24 00:15:06;;;;;;;20.67;13.75;;;;;;;9.94;55.85;98530.34;5031835;28;20417;-51
2023/03/24 00:17:34;;;;;;;19.42;13.00;;;;;;;9.86;56.06;98518.53;5013119;28;20464;-59
2023/03/24 00:20:06;;;;;;;19.35;12.90;;;;;;;9.80;55.99;98508.47;5012883;28;20038;-54
2023/03/24 00:22:32;;;;;;;19.60;12.68;;;;;;;9.76;56.12;98501.75;5012699;28;20034;-55
2023/03/24 00:24:58;;;;;;;17.90;12.45;;;;;;;9.61;56.80;98485.38;5012862;28;20057;-59
2023/03/24 00:27:23;;;;;;;15.80;12.32;;;;;;;9.67;56.55;98502.66;5012774;28;20113;-56
2023/03/24 00:29:48;;;;;;;20.70;13.48;;;;;;;9.62;56.67;98501.25;5012578;28;20109;-57
2023/03/24 00:32:14;;;;;;;18.35;13.25;;;;;;;9.64;56.56;98498.44;5013035;28;20041;-54
2023/03/24 00:34:42;;;;;;;17.92;12.52;;;;;;;9.66;56.66;98500.97;5012612;28;20433;-57
2023/03/24 00:37:08;;;;;;;17.60;13.27;;;;;;;9.75;56.37;98489.38;5030405;28;20089;-56
2023/03/24 00:39:33;;;;;;;16.88;12.65;;;;;;;9.72;56.57;98487.84;5032430;28;20117;-55
2023/03/24 00:42:00;;;;;;;19.88;13.35;;;;;;;9.75;56.53;98484.84;5032267;28;20041;-59
2023/03/24 00:44:26;;;;;;;18.23;13.27;;;;;;;9.73;56.31;98473.47;5032672;28;20367;-57
2023/03/24 00:46:55;;;;;;;19.13;13.43;;;;;;;9.76;56.26;98464.31;5038918;28;20113;-56
2023/03/24 00:49:40;;;;;;;17.33;13.15;;;;;;;9.83;56.18;98475.25;5039145;28;20033;-56
2023/03/24 00:52:35;;;;;;;21.65;13.45;;;;;;;10.05;55.43;98461.41;5038886;28;20103;-56
2023/03/24 00:55:03;;;;;;;20.63;13.43;;;;;;;9.93;56.04;98459.13;5036899;28;20045;-59
2023/03/24 00:57:33;;;;;;;17.80;13.50;;;;;;;9.88;55.90;98456.91;5019254;28;20026;-53
2023/03/24 01:00:06;;;;;;;19.98;13.63;;;;;;;9.85;56.15;98462.56;5019020;28;20034;-57
2023/03/24 01:02:32;;;;;;;18.10;13.40;;;;;;;9.81;56.39;98456.69;5018948;28;20034;-58
2023/03/24 01:05:01;;;;;;;19.55;13.07;;;;;;;9.82;56.59;98466.38;5018161;28;20029;-55
2023/03/24 01:07:29;;;;;;;17.75;13.10;;;;;;;9.81;56.51;98479.91;5019057;28;20108;-53
2023/03/24 01:09:56;;;;;;;18.17;14.20;;;;;;;9.86;56.45;98475.78;5018863;28;20036;-56
2023/03/24 01:12:42;;;;;;;19.15;13.73;;;;;;;9.98;56.13;98495.09;5026228;28;20030;-57
2023/03/24 01:15:13;;;;;;;18.98;12.85;;;;;;;9.96;56.42;98480.22;5036851;28;20045;-56
2023/03/24 01:17:39;;;;;;;19.48;13.52;;;;;;;10.00;55.83;98477.06;5038661;28;20111;-59
2023/03/24 01:20:07;;;;;;;19.88;13.48;;;;;;;10.06;56.39;98480.97;5038699;28;20041;-58
2023/03/24 01:22:36;;;;;;;21.17;13.15;;;;;;;10.07;55.76;98461.25;5024167;28;20033;-58
2023/03/24 01:25:03;;;;;;;18.63;13.27;;;;;;;10.08;55.83;98454.91;5019221;28;20036;-54
2023/03/24 01:27:30;;;;;;;16.40;13.00;;;;;;;10.11;55.86;98459.94;5017732;28;20128;-57
2023/03/24 01:30:00;;;;;;;16.88;13.05;;;;;;;10.05;55.82;98436.50;5018759;28;20364;-55
2023/03/24 01:32:26;;;;;;;17.85;13.52;;;;;;;10.18;55.73;98458.34;5018832;28;20037;-54
2023/03/24 01:34:52;;;;;;;19.90;13.27;;;;;;;10.18;55.99;98450.31;5030464;28;20851;-55
2023/03/24 01:37:18;;;;;;;17.90;13.40;;;;;;;10.18;56.14;98450.31;5038362;28;20046;-57
2023/03/24 01:39:43;;;;;;;17.85;13.40;;;;;;;10.19;56.35;98449.31;5038317;28;20038;-56
2023/03/24 01:42:17;;;;;;;18.35;13.05;;;;;;;10.22;56.30;98442.81;5038555;28;20429;-55
2023/03/24 01:44:46;;;;;;;18.80;12.98;;;;;;;10.22;56.32;98439.31;5025275;28;20026;-55
2023/03/24 01:47:12;;;;;;;17.20;13.52;;;;;;;10.20;56.34;98437.63;5019163;28;20053;-57
2023/03/24 01:49:50;;;;;;;16.40;13.35;;;;;;;10.19;56.43;98427.06;5017753;28;20460;-58
2023/03/24 01:52:20;;;;;;;19.92;13.30;;;;;;;10.20;56.33;98439.44;5018941;28;20065;-56
2023/03/24 01:54:51;;;;;;;16.58;12.52;;;;;;;10.09;56.48;98429.84;5029199;28;20034;-53
2023/03/24 01:57:25;;;;;;;18.35;13.75;;;;;;;10.12;56.41;98431.38;5035840;28;20037;-56
2023/03/24 01:59:56;;;;;;;18.67;13.80;;;;;;;10.09;56.37;98435.19;5024965;28;20420;-54
2023/03/24 02:02:22;;;;;;;17.73;13.13;;;;;;;9.99;56.74;98434.44;5015607;28;20025;-64
2023/03/24 02:04:57;;;;;;;19.80;13.18;;;;;;;9.98;56.93;98432.78;5014851;28;20441;-55
2023/03/24 02:07:42;;;;;;;18.40;13.32;;;;;;;9.94;57.26;98429.56;5018215;28;20022;-55
2023/03/24 02:10:12;;;;;;;17.83;12.68;;;;;;;9.79;57.29;98409.72;5035204;28;20045;-57
2023/03/24 02:12:40;;;;;;;18.30;14.05;;;;;;;9.72;57.40;98428.22;5035387;28;20044;-56
2023/03/24 02:15:07;;;;;;;20.05;14.48;;;;;;;9.68;57.48;98425.00;5034047;28;20098;-59
2023/03/24 02:17:56;;;;;;;17.63;13.40;;;;;;;9.72;57.56;98409.50;5034139;28;20095;-60
2023/03/24 02:20:27;;;;;;;16.10;12.88;;;;;;;9.79;57.25;98405.22;5033938;28;20038;-56
2023/03/24 02:23:40;;;;;;;16.80;13.05;;;;;;;9.97;56.68;98407.03;5017260;28;20033;-63
2023/03/24 02:26:51;;;;;;;19.15;13.32;;;;;;;10.11;56.15;98405.63;5033305;28;20041;-56
2023/03/24 02:29:54;;;;;;;18.40;13.15;;;;;;;10.17;56.11;98397.81;5034726;28;20068;-56
2023/03/24 02:32:28;;;;;;;20.42;13.55;;;;;;;10.12;56.12;98397.44;5022331;28;20026;-55
2023/03/24 02:35:26;;;;;;;16.67;13.57;;;;;;;10.25;56.11;98394.38;5013653;28;20040;-58
2023/03/24 02:38:07;;;;;;;16.65;13.05;;;;;;;10.26;56.28;98390.69;5013781;28;20050;-60
2023/03/24 02:40:59;;;;;;;17.02;12.73;;;;;;;10.23;55.93;98390.16;5014308;28;20487;-59
2023/03/24 02:43:42;;;;;;;18.75;13.70;;;;;;;10.23;55.76;98374.94;5014218;28;20125;-60
2023/03/24 02:46:28;;;;;;;17.10;13.02;;;;;;;10.34;55.96;98388.06;5014828;28;20499;-56
2023/03/24 02:48:57;;;;;;;18.45;13.45;;;;;;;10.32;55.62;98384.72;4997482;28;20041;-62
2023/03/24 02:51:33;;;;;;;18.65;13.55;;;;;;;10.32;55.86;98375.84;5019390;28;20460;-63
2023/03/24 02:54:05;;;;;;;18.50;13.85;;;;;;;10.24;55.75;98359.75;5034403;28;20033;-58
2023/03/24 02:57:00;;;;;;;19.85;13.77;;;;;;;10.41;55.43;98382.97;5019125;28;20030;-57
2023/03/24 02:59:31;;;;;;;17.27;13.68;;;;;;;10.37;55.59;98373.53;5013581;28;20037;-57
2023/03/24 03:02:06;;;;;;;19.38;14.15;;;;;;;10.39;55.68;98373.38;5013710;28;20034;-58
2023/03/24 03:04:39;;;;;;;17.42;13.63;;;;;;;10.38;55.55;98369.88;5014372;28;20101;-55
2023/03/24 03:07:11;;;;;;;21.00;14.15;;;;;;;10.35;55.80;98362.13;5014124;28;20045;-55
2023/03/24 03:09:41;;;;;;;18.63;13.50;;;;;;;10.16;55.94;98317.75;5014379;28;20025;-57
2023/03/24 03:12:10;;;;;;;17.65;13.98;;;;;;;10.37;55.42;98362.00;5033663;28;20034;-59
2023/03/24 03:14:41;;;;;;;17.98;13.07;;;;;;;10.38;55.46;98355.66;5032619;28;20368;-55
2023/03/24 03:17:17;;;;;;;18.20;13.50;;;;;;;10.41;55.85;98350.84;5033814;28;20029;-55
2023/03/24 03:19:55;;;;;;;16.70;13.20;;;;;;;10.47;55.21;98346.69;5024181;28;20428;-58
2023/03/24 03:22:24;;;;;;;16.27;13.07;;;;;;;10.44;55.74;98349.69;5014118;28;20030;-62
2023/03/24 03:24:53;;;;;;;18.20;14.18;;;;;;;10.45;55.31;98351.34;5012875;28;20064;-58
2023/03/24 03:27:30;;;;;;;22.95;14.50;;;;;;;10.42;55.69;98323.09;5014199;28;20064;-59
2023/03/24 03:30:14;;;;;;;19.95;13.57;;;;;;;10.50;55.73;98322.31;5017551;28;20514;-58
2023/03/24 03:32:53;;;;;;;19.58;13.40;;;;;;;10.30;55.64;98300.25;5032181;28;20399;-57
2023/03/24 03:35:28;;;;;;;18.88;13.52;;;;;;;10.41;55.45;98321.44;5032145;28;20454;-57
2023/03/24 03:38:37;;;;;;;17.65;13.52;;;;;;;10.47;55.28;98326.13;5033851;28;20049;-58
2023/03/24 03:41:04;;;;;;;17.70;14.02;;;;;;;10.49;55.91;98336.69;5016234;28;20038;-60
2023/03/24 03:43:32;;;;;;;18.05;14.32;;;;;;;10.33;56.70;98315.97;5014722;28;20054;-59
2023/03/24 03:45:59;;;;;;;20.20;14.32;;;;;;;10.43;57.13;98343.50;5013504;28;20171;-63
2023/03/24 03:48:26;;;;;;;19.48;14.45;;;;;;;10.33;58.05;98337.38;5014114;28;20103;-56
2023/03/24 03:50:53;;;;;;;19.15;14.48;;;;;;;10.17;58.15;98317.59;5025487;28;20037;-56
2023/03/24 03:53:22;;;;;;;23.05;15.70;;;;;;;10.27;59.43;98343.38;5033066;28;20352;-55
2023/03/24 03:55:48;;;;;;;19.90;14.77;;;;;;;10.18;60.17;98339.81;5032243;28;20048;-56
2023/03/24 03:58:14;;;;;;;19.25;15.40;;;;;;;10.15;60.46;98341.00;5032897;28;20041;-55
2023/03/24 04:00:43;;;;;;;18.67;15.77;;;;;;;10.14;60.68;98339.31;5032662;28;20041;-59
2023/03/24 04:03:37;;;;;;;21.63;15.35;;;;;;;10.16;60.88;98331.97;5033111;28;20475;-58
2023/03/24 04:06:25;;;;;;;20.33;15.55;;;;;;;10.15;61.24;98346.34;5024419;28;20037;-57
2023/03/24 04:09:13;;;;;;;20.38;14.90;;;;;;;10.18;61.46;98340.66;4996056;28;20441;-58
2023/03/24 04:12:07;;;;;;;21.25;15.02;;;;;;;9.96;62.05;98317.13;5031726;28;20057;-52
2023/03/24 04:15:10;;;;;;;19.38;15.23;;;;;;;10.15;61.58;98334.78;5032539;28;20080;-54
2023/03/24 04:18:09;;;;;;;22.42;15.90;;;;;;;10.08;61.75;98337.25;5031930;28;20127;-57
2023/03/24 04:20:46;;;;;;;24.23;16.27;;;;;;;9.97;62.36;98329.50;5032484;28;20140;-53
2023/03/24 04:23:25;;;;;;;21.73;16.20;;;;;;;9.88;63.22;98323.25;5031817;28;20037;-56
2023/03/24 04:26:05;;;;;;;22.73;16.92;;;;;;;9.85;63.72;98319.03;5032344;28;20056;-59
2023/03/24 04:28:43;;;;;;;23.73;16.67;;;;;;;9.87;64.02;98319.72;5032331;28;20098;-56
2023/03/24 04:31:17;;;;;;;23.30;17.27;;;;;;;9.79;64.17;98317.00;5014871;28;20038;-55
2023/03/24 04:33:44;;;;;;;23.08;17.75;;;;;;;9.80;64.36;98315.19;5012879;28;20125;-55
2023/03/24 04:36:16;;;;;;;25.75;17.30;;;;;;;9.76;64.64;98320.00;5012837;28;20045;-58
2023/03/24 04:38:46;;;;;;;24.15;17.55;;;;;;;9.80;65.25;98316.00;4995686;28;20057;-57
2023/03/24 04:41:16;;;;;;;22.70;17.17;;;;;;;9.77;64.85;98311.84;5012939;28;20358;-56
2023/03/24 04:43:44;;;;;;;23.90;17.50;;;;;;;9.75;65.42;98315.66;5011655;28;20064;-59
2023/03/24 04:46:10;;;;;;;24.88;17.90;;;;;;;9.73;65.34;98304.28;5031270;28;20032;-59
2023/03/24 04:48:35;;;;;;;38.38;26.50;;;;;;;9.74;65.09;98316.63;5032503;28;20037;-58
2023/03/24 04:51:03;;;;;;;46.17;28.08;;;;;;;9.76;65.17;98309.31;5015178;28;20317;-64
2023/03/24 04:53:29;;;;;;;49.60;27.48;;;;;;;9.72;65.90;98302.59;5029812;28;20037;-55
2023/03/24 04:56:01;;;;;;;45.13;26.00;;;;;;;9.74;66.20;98317.47;5031975;28;20460;-55
2023/03/24 04:58:27;;;;;;;32.35;21.52;;;;;;;9.72;66.45;98308.75;5032360;28;20049;-56
2023/03/24 05:00:54;;;;;;;26.10;19.60;;;;;;;9.73;66.80;98309.63;5032069;28;20448;-55
2023/03/24 05:03:19;;;;;;;28.15;18.60;;;;;;;9.74;67.02;98308.63;5032374;28;20041;-53
2023/03/24 05:05:48;;;;;;;26.08;19.02;;;;;;;9.74;67.24;98316.63;5032509;28;20440;-53
2023/03/24 05:08:15;;;;;;;28.23;19.02;;;;;;;9.74;67.03;98308.63;5032213;28;20037;-56
2023/03/24 05:10:41;;;;;;;31.35;19.55;;;;;;;9.75;67.11;98307.63;5017028;28;20025;-56
2023/03/24 05:13:08;;;;;;;27.35;19.42;;;;;;;9.73;67.89;98315.78;5011518;28;20125;-57
2023/03/24 05:15:34;;;;;;;30.45;19.17;;;;;;;9.74;67.04;98319.31;5021803;28;20351;-58
2023/03/24 05:18:00;;;;;;;27.58;19.40;;;;;;;9.54;67.62;98291.94;5032246;28;20029;-59
2023/03/24 05:20:26;;;;;;;30.08;19.58;;;;;;;9.63;67.99;98313.22;5032245;28;20032;-58
2023/03/24 05:22:52;;;;;;;28.05;20.15;;;;;;;9.69;68.14;98319.78;5032168;28;20033;-53
2023/03/24 05:25:18;;;;;;;30.38;19.88;;;;;;;9.70;67.82;98329.47;5032282;28;20136;-60
2023/03/24 05:27:44;;;;;;;31.13;20.15;;;;;;;9.66;67.98;98314.75;5032159;28;20037;-53
2023/03/24 05:30:10;;;;;;;27.38;20.15;;;;;;;9.64;67.66;98319.41;5021684;28;20033;-51
2023/03/24 05:32:36;;;;;;;25.88;20.08;;;;;;;9.68;67.47;98325.28;5014351;28;20041;-58
2023/03/24 05:35:03;;;;;;;27.77;20.35;;;;;;;9.65;67.73;98325.59;5016703;28;20121;-57
2023/03/24 05:37:29;;;;;;;28.13;20.65;;;;;;;9.60;67.87;98318.03;5015086;28;20098;-60
2023/03/24 05:39:55;;;;;;;30.27;20.83;;;;;;;9.37;67.93;98285.63;5029292;28;20136;-57
2023/03/24 05:42:21;;;;;;;30.17;22.05;;;;;;;9.56;68.51;98320.16;5035927;28;20104;-58
2023/03/24 05:44:47;;;;;;;28.33;21.63;;;;;;;9.58;68.32;98315.50;5035808;28;20431;-56
2023/03/24 05:47:15;;;;;;;32.53;22.17;;;;;;;9.61;68.35;98322.38;5035724;28;20064;-56
2023/03/24 05:49:43;;;;;;;28.30;20.98;;;;;;;9.67;68.51;98318.25;5028711;28;20030;-60
2023/03/24 05:52:09;;;;;;;30.33;21.55;;;;;;;9.66;68.77;98322.75;5015921;28;20061;-57
2023/03/24 05:54:35;;;;;;;29.50;21.17;;;;;;;9.68;68.45;98336.81;5014546;28;20032;-65
2023/03/24 05:57:01;;;;;;;28.00;21.27;;;;;;;9.68;68.45;98311.94;5015754;28;20436;-59
2023/03/24 05:59:28;;;;;;;32.42;21.17;;;;;;;9.66;68.45;98314.75;5014345;28;20129;-59
2023/03/24 06:01:55;;;;;;;30.50;20.67;;;;;;;9.63;68.39;98321.22;5015576;28;20107;-56
2023/03/24 06:04:22;;;;;;;29.83;21.30;;;;;;;9.67;68.70;98310.25;5033893;28;20043;-57
2023/03/24 06:06:47;;;;;;;33.72;21.17;;;;;;;9.65;68.75;98305.03;5035099;28;20025;-57
2023/03/24 06:09:15;;;;;;;26.27;20.27;;;;;;;9.72;69.11;98316.78;5029219;28;20101;-58
2023/03/24 06:11:42;;;;;;;28.92;21.90;;;;;;;9.71;68.94;98300.91;5034020;28;20077;-59
2023/03/24 06:14:08;;;;;;;30.00;21.15;;;;;;;9.73;68.67;98309.63;5033979;28;20448;-53
2023/03/24 06:16:39;;;;;;;25.58;20.27;;;;;;;9.68;69.06;98309.25;5034344;28;20090;-56
2023/03/24 06:19:05;;;;;;;30.70;21.60;;;;;;;9.67;68.98;98307.56;5035460;28;20119;-63
2023/03/24 06:21:34;;;;;;;29.13;20.85;;;;;;;9.73;69.04;98307.78;5035315;28;20448;-58
2023/03/24 06:23:59;;;;;;;25.85;19.65;;;;;;;9.50;68.93;98282.53;5033974;28;20144;-62
2023/03/24 06:26:25;;;;;;;31.08;21.17;;;;;;;9.68;68.98;98307.41;5030937;28;20464;-57
2023/03/24 06:28:51;;;;;;;27.05;20.40;;;;;;;9.60;68.97;98297.50;5013530;28;20053;-60
2023/03/24 06:31:20;;;;;;;23.98;18.55;;;;;;;9.66;69.30;98313.91;5027246;28;20030;-56
2023/03/24 06:33:52;;;;;;;27.17;19.77;;;;;;;9.74;69.31;98317.47;5034741;28;20047;-60
2023/03/24 06:36:17;;;;;;;26.80;19.85;;;;;;;9.71;69.22;98311.63;5034886;28;20063;-56
2023/03/24 06:38:44;;;;;;;25.30;19.65;;;;;;;9.69;69.03;98303.75;5034710;28;20383;-55
2023/03/24 06:41:10;;;;;;;24.05;18.02;;;;;;;9.71;69.13;98314.28;5033539;28;20064;-57
2023/03/24 06:43:35;;;;;;;24.95;18.13;;;;;;;9.72;69.46;98308.75;5034704;28;20026;-56
2023/03/24 06:46:01;;;;;;;28.48;18.00;;;;;;;9.79;69.09;98309.00;5020967;28;20117;-55
2023/03/24 06:48:27;;;;;;;22.35;17.60;;;;;;;9.83;68.57;98310.34;5014411;28;20085;-55
2023/03/24 06:50:54;;;;;;;28.58;17.77;;;;;;;9.72;69.07;98290.06;5022891;28;20046;-56
2023/03/24 06:53:22;;;;;;;26.17;17.58;;;;;;;9.82;68.97;98303.31;5024686;28;20049;-58
2023/03/24 06:55:49;;;;;;;26.42;16.83;;;;;;;9.89;68.72;98293.69;5013301;28;20418;-56
2023/03/24 06:58:16;;;;;;;23.25;16.30;;;;;;;9.94;68.32;98298.56;5013372;28;20030;-57
2023/03/24 07:00:43;;;;;;;22.08;16.33;;;;;;;9.98;68.21;98304.44;5014472;28;20473;-56
2023/03/24 07:03:09;;;;;;;26.02;16.27;;;;;;;9.98;68.57;98301.75;5014030;28;20034;-62
2023/03/24 07:05:39;;;;;;;21.23;16.20;;;;;;;10.00;68.44;98307.78;5013561;28;20113;-54
2023/03/24 07:08:04;;;;;;;35.13;17.42;;;;;;;9.90;68.81;98303.41;5022710;28;20040;-54
2023/03/24 07:10:30;;;;;;;27.45;17.23;;;;;;;9.83;68.74;98305.00;5033892;28;20037;-59
2023/03/24 07:12:56;;;;;;;29.23;17.40;;;;;;;9.79;69.18;98303.63;5027660;28;20037;-60
2023/03/24 07:15:22;;;;;;;60.00;21.02;;;;;;;9.73;69.07;98306.94;5013839;28;20026;-57
2023/03/24 07:17:48;;;;;;;50.88;18.38;;;;;;;9.68;69.66;98291.38;5013451;28;20050;-55
2023/03/24 07:20:14;;;;;;;39.03;18.20;;;;;;;9.73;69.79;98304.28;5010287;28;20354;-60
2023/03/24 07:22:40;;;;;;;31.73;16.10;;;;;;;9.75;69.49;98302.28;5020618;28;20100;-59
2023/03/24 07:25:06;;;;;;;25.50;15.75;;;;;;;9.78;69.48;98304.63;4996660;28;20045;-56
2023/03/24 07:27:34;;;;;;;21.60;15.73;;;;;;;9.75;69.58;98321.00;5030020;28;20063;-56
2023/03/24 07:30:01;;;;;;;20.33;15.65;;;;;;;9.78;70.28;98307.31;5030782;28;20040;-55
2023/03/24 07:32:29;;;;;;;19.83;15.23;;;;;;;9.81;69.67;98315.00;5031600;28;20052;-51
2023/03/24 07:34:56;;;;;;;25.25;15.75;;;;;;;9.68;69.83;98296.72;5031199;28;20044;-57
2023/03/24 07:37:22;;;;;;;24.48;15.77;;;;;;;9.80;70.37;98318.69;5029372;28;20132;-55
2023/03/24 07:39:47;;;;;;;23.15;15.63;;;;;;;9.78;70.05;98312.66;5031196;28;20528;-57
2023/03/24 07:42:13;;;;;;;22.13;14.98;;;;;;;9.84;70.30;98311.19;5014610;28;20125;-53
2023/03/24 07:44:38;;;;;;;17.30;13.57;;;;;;;9.69;70.11;98289.56;5031090;28;20041;-52
2023/03/24 07:47:04;;;;;;;19.85;14.07;;;;;;;9.94;70.15;98325.28;5031288;28;20396;-53
2023/03/24 07:49:30;;;;;;;18.20;12.57;;;;;;;9.93;69.42;98317.44;5030704;28;20511;-53
2023/03/24 07:51:57;;;;;;;18.48;12.50;;;;;;;9.92;70.49;98311.25;5013427;28;20046;-61
2023/03/24 07:54:23;;;;;;;19.00;12.45;;;;;;;9.98;70.20;98325.81;5012577;28;20369;-54
2023/03/24 07:56:49;;;;;;;17.13;12.90;;;;;;;10.01;70.50;98333.53;5023539;28;20034;-53
2023/03/24 07:59:16;;;;;;;16.15;11.65;;;;;;;10.04;70.28;98327.88;5024916;28;20049;-55
2023/03/24 08:01:42;;;;;;;14.10;10.93;;;;;;;9.86;70.04;98299.34;5023523;28;20025;-51
2023/03/24 08:04:12;;;;;;;12.38;10.10;;;;;;;10.06;70.16;98333.88;5032398;28;20116;-57
2023/03/24 08:06:37;;;;;;;12.77;9.60;;;;;;;10.04;70.43;98328.72;5033000;28;20041;-56
2023/03/24 08:09:03;;;;;;;14.25;9.82;;;;;;;10.02;69.88;98325.38;5031232;28;20036;-51
2023/03/24 08:11:28;;;;;;;11.88;9.60;;;;;;;9.88;70.22;98308.03;5027295;28;20341;-56
2023/03/24 08:13:54;;;;;;;14.20;8.75;;;;;;;10.04;70.11;98334.06;5025316;28;20134;-56
2023/03/24 08:16:20;;;;;;;14.88;9.07;;;;;;;10.09;69.58;98333.56;5021153;28;20033;-50
2023/03/24 08:18:47;;;;;;;12.30;9.25;;;;;;;10.11;69.55;98344.94;5023755;28;20041;-52
2023/03/24 08:21:13;;;;;;;13.00;8.70;;;;;;;10.12;69.88;98335.09;5024390;28;20436;-54
2023/03/24 08:23:38;;;;;;;10.45;7.53;;;;;;;10.16;69.65;98348.00;5031311;28;20029;-54
2023/03/24 08:26:06;;;;;;;8.85;7.57;;;;;;;10.17;69.81;98340.81;5030157;28;20029;-52
2023/03/24 08:28:31;;;;;;;12.25;7.53;;;;;;;10.13;69.60;98337.63;5018684;28;20432;-58
2023/03/24 08:30:57;;;;;;;12.27;8.05;;;;;;;10.20;68.93;98340.50;5013810;28;20034;-51
2023/03/24 08:33:23;;;;;;;10.05;8.50;;;;;;;10.20;69.30;98344.03;5012460;28;20069;-55
2023/03/24 08:35:48;;;;;;;20.60;12.50;;;;;;;10.29;69.96;98347.59;5011597;28;20092;-54
2023/03/24 08:38:15;;;;;;;13.75;9.20;;;;;;;10.42;69.36;98344.50;5011581;28;20060;-56
2023/03/24 08:40:41;;;;;;;12.93;7.90;;;;;;;10.52;68.87;98346.22;5016323;28;20139;-60
2023/03/24 08:43:11;;;;;;;9.05;7.32;;;;;;;10.63;68.63;98351.28;5013366;28;20042;-53
2023/03/24 08:45:37;;;;;;;14.50;7.60;;;;;;;10.75;68.65;98350.00;5024430;28;20029;-57
2023/03/24 08:48:05;;;;;;;11.40;7.63;;;;;;;10.83;68.44;98349.19;5028429;28;20468;-56
2023/03/24 08:50:39;;;;;;;11.23;6.70;;;;;;;10.99;67.81;98353.75;5051981;28;20047;-60
2023/03/24 08:53:05;;;;;;;9.65;6.78;;;;;;;11.00;67.33;98346.56;5051481;28;20036;-56
2023/03/24 08:55:31;;;;;;;10.68;7.43;;;;;;;11.02;67.27;98350.75;5047291;28;20033;-55
2023/03/24 08:57:56;;;;;;;11.77;7.22;;;;;;;11.08;67.38;98353.75;5019300;28;20158;-55
2023/03/24 09:00:23;;;;;;;9.02;7.47;;;;;;;11.09;67.53;98350.09;5030454;28;20392;-52
2023/03/24 09:02:52;;;;;;;8.63;7.05;;;;;;;11.10;67.21;98349.94;5032002;28;20478;-54
2023/03/24 09:05:19;;;;;;;10.68;6.95;;;;;;;11.07;67.30;98360.97;5032144;28;20034;-54
2023/03/24 09:07:46;;;;;;;11.32;8.18;;;;;;;11.06;66.81;98359.31;5025524;28;20037;-49
2023/03/24 09:10:13;;;;;;;11.98;7.45;;;;;;;11.11;67.22;98362.31;5021682;28;20068;-65
2023/03/24 09:12:40;;;;;;;10.63;6.75;;;;;;;11.06;66.98;98356.63;5025246;28;20030;-55
2023/03/24 09:15:07;;;;;;;10.88;6.30;;;;;;;11.06;66.89;98372.69;5029682;28;20095;-54
2023/03/24 09:17:33;;;;;;;6.70;5.53;;;;;;;11.03;67.33;98359.63;5030041;28;20112;-56
2023/03/24 09:19:59;;;;;;;8.68;5.75;;;;;;;11.13;66.36;98359.50;5033078;28;20044;-50
2023/03/24 09:22:25;;;;;;;7.93;5.50;;;;;;;11.17;66.28;98369.69;5021150;28;20247;-52
2023/03/24 09:24:50;;;;;;;6.20;5.22;;;;;;;11.14;66.68;98371.88;5016192;28;20411;-51
2023/03/24 09:27:16;;;;;;;7.60;5.65;;;;;;;11.12;66.66;98372.03;5015222;28;20371;-63
2023/03/24 09:29:41;;;;;;;7.35;5.10;;;;;;;11.08;66.38;98378.72;5025711;28;20033;-52
2023/03/24 09:32:07;;;;;;;5.70;4.72;;;;;;;11.06;66.38;98368.16;5034329;28;20025;-52
2023/03/24 09:34:33;;;;;;;6.70;5.15;;;;;;;10.96;66.59;98347.88;5034846;28;20074;-51
2023/03/24 09:36:59;;;;;;;6.53;4.82;;;;;;;11.16;66.51;98376.06;5034496;28;20044;-56
2023/03/24 09:39:26;;;;;;;9.32;5.63;;;;;;;11.21;66.74;98386.28;5035211;28;20258;-54
2023/03/24 09:41:54;;;;;;;9.20;6.28;;;;;;;11.25;66.66;98384.97;5029473;28;20033;-56
2023/03/24 09:44:29;;;;;;;5.72;4.78;;;;;;;11.36;66.06;98388.34;5021283;28;20352;-57
2023/03/24 09:47:00;;;;;;;5.50;4.68;;;;;;;11.11;65.51;98361.50;5017681;28;20141;-56
2023/03/24 09:49:35;;;;;;;7.75;5.10;;;;;;;11.23;66.57;98400.34;5015264;28;20408;-60
2023/03/24 09:52:05;;;;;;;10.37;6.20;;;;;;;11.19;65.76;98407.06;5015238;28;20058;-54
2023/03/24 09:54:56;;;;;;;6.82;5.85;;;;;;;11.22;66.25;98398.69;5014305;28;20634;-54
2023/03/24 09:57:28;;;;;;;7.80;4.65;;;;;;;11.12;65.95;98393.47;5016782;28;20129;-59
2023/03/24 09:59:55;;;;;;;5.95;4.47;;;;;;;11.04;66.17;98401.47;5034391;28;20029;-57
2023/03/24 10:02:21;;;;;;;7.88;5.40;;;;;;;10.98;66.27;98400.28;5044994;28;20024;-54
2023/03/24 10:04:48;;;;;;;7.50;5.78;;;;;;;10.83;66.09;98409.91;5043088;28;20041;-63
2023/03/24 10:07:36;;;;;;;5.57;4.63;;;;;;;10.85;67.06;98413.25;5040714;28;20407;-67
2023/03/24 10:10:07;;;;;;;5.97;5.05;;;;;;;10.68;66.72;98402.50;5044501;28;20039;-59
2023/03/24 10:12:47;;;;;;;5.63;4.85;;;;;;;10.68;66.54;98404.31;5044118;28;20025;-60
2023/03/24 10:15:36;;;;;;;8.35;4.97;;;;;;;10.60;67.18;98403.28;5042580;28;20604;-57
2023/03/24 10:18:11;;;;;;;6.18;5.38;;;;;;;10.54;67.09;98409.28;5041649;28;20032;-61
2023/03/24 10:20:50;;;;;;;7.40;5.70;;;;;;;10.44;67.61;98405.88;5044103;28;20044;-59
2023/03/24 10:23:35;;;;;;;7.78;5.25;;;;;;;10.55;67.63;98407.44;5042808;28;20025;-58
2023/03/24 10:26:25;;;;;;;6.43;4.97;;;;;;;10.65;67.10;98405.50;5042364;28;20021;-62
2023/03/24 10:29:05;;;;;;;6.60;4.97;;;;;;;10.79;67.68;98411.25;5041418;28;20044;-59
2023/03/24 10:31:35;;;;;;;7.35;5.28;;;;;;;10.87;66.50;98413.97;5040428;28;20039;-59
2023/03/24 10:34:00;;;;;;;6.30;4.78;;;;;;;10.83;66.08;98408.09;5041666;28;20176;-62
2023/03/24 10:36:27;;;;;;;5.95;4.93;;;;;;;10.87;65.66;98413.97;5043102;28;20136;-57
2023/03/24 10:38:54;;;;;;;6.57;5.22;;;;;;;10.85;65.80;98413.25;5040990;28;20532;-56
2023/03/24 10:41:24;;;;;;;8.50;4.90;;;;;;;10.96;65.78;98413.00;5038270;28;20163;-55
2023/03/24 10:43:52;;;;;;;5.53;4.97;;;;;;;11.09;64.77;98406.31;5041499;28;20075;-63
2023/03/24 10:46:21;;;;;;;7.45;5.05;;;;;;;11.30;64.85;98417.44;5041417;28;20152;-66
2023/03/24 10:48:53;;;;;;;5.45;4.82;;;;;;;11.43;63.75;98405.44;5040247;28;20049;-63
2023/03/24 10:51:25;;;;;;;7.80;4.88;;;;;;;11.59;63.54;98418.88;5041981;28;20072;-62
2023/03/24 10:54:01;;;;;;;5.82;5.03;;;;;;;11.71;62.62;98427.44;5039095;28;20024;-63
2023/03/24 10:56:41;;;;;;;10.60;5.53;;;;;;;11.91;62.75;98424.41;5024439;28;20034;-62
2023/03/24 10:59:24;;;;;;;11.70;5.05;;;;;;;11.95;62.38;98430.28;5039483;28;20096;-64
2023/03/24 11:01:56;;;;;;;6.90;4.47;;;;;;;11.85;62.18;98430.44;5041706;28;20116;-63
2023/03/24 11:04:22;;;;;;;11.52;4.50;;;;;;;11.80;62.22;98438.97;5041760;28;20021;-62
2023/03/24 11:07:00;;;;;;;5.53;4.47;;;;;;;11.99;62.14;98435.16;5050352;28;20135;-64
2023/03/24 11:09:25;;;;;;;7.65;4.95;;;;;;;11.92;61.42;98423.41;5054366;28;20036;-63
2023/03/24 11:11:52;;;;;;;5.30;4.20;;;;;;;11.78;61.24;98415.03;5052991;28;20082;-65
2023/03/24 11:14:27;;;;;;;6.05;4.70;;;;;;;12.04;61.66;98432.84;5052949;28;20358;-64
2023/03/24 11:17:06;;;;;;;4.93;4.18;;;;;;;12.23;61.38;98435.34;5032685;28;20064;-65
2023/03/24 11:19:35;;;;;;;6.18;4.25;;;;;;;12.45;60.12;98431.97;5013643;28;20146;-64
2023/03/24 11:22:04;;;;;;;5.25;4.03;;;;;;;12.52;59.05;98407.09;5012774;28;20036;-65
2023/03/24 11:24:36;;;;;;;8.02;4.15;;;;;;;12.91;58.74;98435.88;5013769;28;20030;-53
2023/03/24 11:27:02;;;;;;;6.07;4.30;;;;;;;12.98;58.51;98438.72;5023876;28;20108;-54
2023/03/24 11:29:38;;;;;;;6.70;4.15;;;;;;;13.20;58.32;98429.88;5028395;28;20025;-54
2023/03/24 11:32:12;;;;;;;4.85;4.00;;;;;;;13.34;57.43;98430.97;5018246;28;20029;-57
2023/03/24 11:34:45;;;;;;;6.65;4.30;;;;;;;13.20;57.67;98404.84;5012412;28;20025;-54
2023/03/24 11:37:22;;;;;;;4.60;3.97;;;;;;;13.45;57.14;98431.63;5014411;28;20390;-56
2023/03/24 11:40:13;;;;;;;7.30;3.85;;;;;;;13.51;57.28;98439.00;5012437;28;20030;-55